Valmiera, Latvia
Current Conditions -  °F | °C
As of 7:20 PM on Sunday 23 Nov 2014 (Local Time) from EVRA Reporting Station
Haze Haze  
Wind Chill: 26°   Ceiling: 200
Heat Index: 32°   Visibility: 1.1mi
Dew Point: 32°   Wind: 6mph
Humidity: 100%   Direction: 120°ESE
Pressure: 30.56"   Gusts: NA
Location:  57.55°N, 25.42°E
Report Text: EVRA 231620Z 12005KT 1800 BR OVC002 00/00 Q1035 R18/290195 NOSIG
Loading
Personal Weather Stations






























Interactive Weather Map New forecast layout! Learn more

10-Day Weather Forecast

Advertisements
Track Severe Weather on mobile